createdAt,value
2023-03-16T00:00:14.730Z,8.20
2023-03-16T00:02:41.994Z,8.20
2023-03-16T00:05:10.262Z,8.20
2023-03-16T00:07:37.034Z,8.20
2023-03-16T00:10:03.995Z,8.20
2023-03-16T00:12:34.597Z,8.20
2023-03-16T00:15:02.032Z,8.20
2023-03-16T00:17:28.889Z,8.20
2023-03-16T00:19:57.184Z,8.20
2023-03-16T00:22:27.768Z,8.20
2023-03-16T00:24:54.644Z,8.20
2023-03-16T00:27:22.931Z,8.20
2023-03-16T00:29:55.734Z,8.30
2023-03-16T00:32:33.262Z,8.30
2023-03-16T00:35:02.113Z,8.30
2023-03-16T00:37:29.193Z,8.40
2023-03-16T00:39:56.486Z,8.40
2023-03-16T00:42:27.764Z,8.40
2023-03-16T00:44:57.646Z,8.40
2023-03-16T00:47:28.639Z,8.40
2023-03-16T00:49:55.401Z,8.50
2023-03-16T00:52:23.300Z,8.50
2023-03-16T00:54:50.187Z,8.60
2023-03-16T00:57:18.902Z,8.60
2023-03-16T00:59:46.240Z,8.60
2023-03-16T01:02:13.184Z,8.70
2023-03-16T01:04:41.341Z,8.60
2023-03-16T01:07:08.975Z,8.60
2023-03-16T01:09:37.078Z,8.60
2023-03-16T01:12:06.248Z,8.70
2023-03-16T01:14:34.920Z,8.60
2023-03-16T01:17:02.669Z,8.60
2023-03-16T01:19:29.959Z,8.70
2023-03-16T01:21:56.665Z,8.70
2023-03-16T01:24:24.336Z,8.70
2023-03-16T01:26:51.134Z,8.70
2023-03-16T01:29:17.880Z,8.70
2023-03-16T01:31:44.800Z,8.70
2023-03-16T01:34:16.609Z,8.70
2023-03-16T01:36:46.275Z,8.70
2023-03-16T01:39:12.978Z,8.70
2023-03-16T01:41:41.204Z,8.70
2023-03-16T01:44:12.186Z,8.80
2023-03-16T01:46:39.114Z,8.80
2023-03-16T01:49:20.347Z,8.80
2023-03-16T01:51:56.342Z,8.80
2023-03-16T01:54:51.574Z,8.80
2023-03-16T01:57:22.744Z,8.80
2023-03-16T02:00:19.105Z,8.80
2023-03-16T02:02:51.536Z,8.80
2023-03-16T02:05:39.238Z,8.90
2023-03-16T02:08:06.229Z,8.90
2023-03-16T02:10:33.582Z,8.90
2023-03-16T02:13:00.746Z,8.90
2023-03-16T02:15:27.603Z,8.90
2023-03-16T02:17:54.470Z,9.00
2023-03-16T02:20:39.580Z,9.00
2023-03-16T02:23:07.397Z,9.00
2023-03-16T02:25:45.060Z,9.00
2023-03-16T02:28:21.810Z,9.00
2023-03-16T02:30:48.620Z,9.10
2023-03-16T02:33:16.209Z,9.10
2023-03-16T02:35:43.002Z,9.10
2023-03-16T02:38:09.999Z,9.10
2023-03-16T02:40:38.101Z,9.20
2023-03-16T02:43:09.436Z,9.20
2023-03-16T02:45:57.241Z,9.20
2023-03-16T02:48:27.621Z,9.20
2023-03-16T02:50:54.611Z,9.20
2023-03-16T02:53:21.429Z,9.30
2023-03-16T02:55:48.305Z,9.30
2023-03-16T02:58:15.244Z,9.30
2023-03-16T03:00:42.397Z,9.30
2023-03-16T03:03:09.653Z,9.30
2023-03-16T03:05:36.984Z,9.40
2023-03-16T03:08:04.657Z,9.40
2023-03-16T03:10:31.401Z,9.60
2023-03-16T03:12:58.388Z,9.40
2023-03-16T03:15:25.158Z,9.50
2023-03-16T03:17:51.956Z,9.40
2023-03-16T03:20:19.545Z,9.50
2023-03-16T03:22:49.766Z,9.50
2023-03-16T03:25:17.268Z,9.50
2023-03-16T03:27:44.312Z,9.50
2023-03-16T03:30:12.941Z,9.50
2023-03-16T03:32:40.430Z,9.60
2023-03-16T03:35:07.646Z,9.60
2023-03-16T03:37:34.439Z,9.60
2023-03-16T03:40:04.779Z,9.60
2023-03-16T03:42:31.522Z,9.70
2023-03-16T03:44:58.272Z,9.70
2023-03-16T03:47:25.022Z,9.70
2023-03-16T03:49:51.783Z,9.80
2023-03-16T03:52:19.675Z,9.80
2023-03-16T03:54:46.430Z,9.80
2023-03-16T03:57:13.146Z,9.80
2023-03-16T03:59:43.766Z,9.80
2023-03-16T04:02:11.225Z,9.80
2023-03-16T04:04:38.133Z,9.80
2023-03-16T04:07:05.140Z,9.90
2023-03-16T04:09:34.958Z,9.90
2023-03-16T04:12:02.413Z,9.90
2023-03-16T04:14:30.199Z,9.90
2023-03-16T04:16:57.072Z,10.00
2023-03-16T04:19:24.409Z,9.90
2023-03-16T04:21:51.540Z,9.90
2023-03-16T04:24:18.462Z,10.00
2023-03-16T04:26:45.503Z,10.00
2023-03-16T04:29:14.410Z,10.00
2023-03-16T04:31:42.423Z,10.00
2023-03-16T04:34:09.318Z,10.00
2023-03-16T04:36:36.081Z,10.00
2023-03-16T04:39:02.997Z,10.00
2023-03-16T04:41:29.763Z,10.00
2023-03-16T04:43:57.709Z,10.20
2023-03-16T04:46:26.667Z,10.10
2023-03-16T04:48:54.008Z,10.10
2023-03-16T04:51:21.585Z,10.10
2023-03-16T04:53:48.374Z,10.10
2023-03-16T04:56:19.697Z,10.20
2023-03-16T04:58:47.421Z,10.10
2023-03-16T05:01:14.331Z,10.10
2023-03-16T05:03:41.144Z,10.20
2023-03-16T05:06:07.940Z,10.20
2023-03-16T05:08:34.707Z,10.20
2023-03-16T05:11:01.465Z,10.20
2023-03-16T05:13:28.297Z,10.10
2023-03-16T05:15:55.148Z,10.10
2023-03-16T05:18:22.546Z,10.10
2023-03-16T05:20:53.541Z,10.10
2023-03-16T05:23:20.725Z,10.10
2023-03-16T05:25:48.076Z,10.10
2023-03-16T05:28:15.091Z,10.10
2023-03-16T05:30:42.531Z,10.10
2023-03-16T05:33:09.470Z,10.00
2023-03-16T05:35:36.538Z,10.00
2023-03-16T05:38:03.407Z,10.00
2023-03-16T05:40:30.414Z,10.00
2023-03-16T05:42:57.659Z,9.90
2023-03-16T05:45:24.690Z,9.90
2023-03-16T05:47:51.861Z,10.00
2023-03-16T05:50:18.684Z,10.00
2023-03-16T05:52:45.499Z,10.00
2023-03-16T05:55:13.200Z,10.10
2023-03-16T05:57:40.076Z,10.10
2023-03-16T06:00:15.897Z,10.00
2023-03-16T06:02:43.668Z,10.10
2023-03-16T06:05:11.155Z,10.00
2023-03-16T06:07:38.027Z,10.10
2023-03-16T06:10:05.624Z,10.10
2023-03-16T06:12:32.419Z,10.10
2023-03-16T06:14:59.194Z,10.10
2023-03-16T06:17:25.978Z,10.10
2023-03-16T06:19:52.765Z,10.10
2023-03-16T06:22:19.621Z,10.10
2023-03-16T06:24:46.445Z,10.10
2023-03-16T06:27:13.381Z,10.10
2023-03-16T06:29:40.217Z,10.10
2023-03-16T06:32:06.969Z,10.10
2023-03-16T06:34:35.850Z,10.10
2023-03-16T06:37:04.118Z,10.10
2023-03-16T06:39:31.228Z,10.10
2023-03-16T06:41:58.248Z,10.10
2023-03-16T06:44:25.137Z,10.10
2023-03-16T06:46:51.839Z,10.00
2023-03-16T06:49:18.996Z,10.10
2023-03-16T06:51:45.760Z,10.10
2023-03-16T06:54:12.872Z,10.10
2023-03-16T06:56:39.671Z,10.20
2023-03-16T06:59:06.641Z,10.20
2023-03-16T07:01:33.517Z,10.20
2023-03-16T07:04:00.427Z,10.20
2023-03-16T07:06:27.196Z,10.20
2023-03-16T07:08:53.973Z,10.20
2023-03-16T07:11:20.785Z,10.20
2023-03-16T07:13:47.545Z,10.20
2023-03-16T07:16:14.423Z,10.20
2023-03-16T07:18:44.323Z,10.30
2023-03-16T07:21:11.309Z,10.30
2023-03-16T07:23:38.095Z,10.30
2023-03-16T07:26:08.133Z,10.30
2023-03-16T07:28:35.271Z,10.30
2023-03-16T07:31:04.203Z,10.40
2023-03-16T07:33:32.487Z,10.40
2023-03-16T07:35:59.520Z,10.40
2023-03-16T07:38:26.349Z,10.40
2023-03-16T07:40:53.248Z,10.40
2023-03-16T07:43:19.993Z,10.40
2023-03-16T07:45:50.451Z,10.40
2023-03-16T07:48:17.972Z,10.40
2023-03-16T07:50:44.985Z,10.50
2023-03-16T07:53:11.846Z,10.50
2023-03-16T07:55:39.079Z,10.50
2023-03-16T07:58:06.272Z,10.50
2023-03-16T08:00:33.994Z,10.60
2023-03-16T08:03:02.359Z,10.60
2023-03-16T08:05:29.253Z,10.60
2023-03-16T08:07:58.821Z,10.60
2023-03-16T08:10:25.727Z,10.60
2023-03-16T08:12:52.597Z,10.70
2023-03-16T08:15:19.444Z,10.70
2023-03-16T08:17:46.662Z,10.70
2023-03-16T08:20:15.013Z,10.70
2023-03-16T08:22:47.455Z,10.70
2023-03-16T08:25:14.556Z,10.70
2023-03-16T08:27:42.962Z,10.70
2023-03-16T08:30:11.861Z,10.70
2023-03-16T08:32:42.081Z,10.70
2023-03-16T08:35:13.726Z,10.70
2023-03-16T08:37:41.589Z,10.80
2023-03-16T08:40:14.217Z,10.70
2023-03-16T08:42:41.622Z,10.80
2023-03-16T08:45:14.200Z,10.80
2023-03-16T08:47:41.304Z,10.80
2023-03-16T08:50:13.041Z,10.80
2023-03-16T08:52:40.806Z,10.90
2023-03-16T08:55:11.018Z,10.90
2023-03-16T08:57:39.313Z,10.90
2023-03-16T09:00:18.245Z,11.00
2023-03-16T09:02:45.645Z,11.10
2023-03-16T09:05:13.413Z,11.10
2023-03-16T09:07:40.955Z,11.10
2023-03-16T09:10:08.422Z,11.20
2023-03-16T09:12:35.897Z,11.20
2023-03-16T09:15:02.833Z,11.20
2023-03-16T09:17:29.650Z,11.20
2023-03-16T09:20:05.531Z,11.30
2023-03-16T09:22:38.727Z,11.30
2023-03-16T09:25:07.000Z,11.40
2023-03-16T09:27:34.072Z,11.50
2023-03-16T09:30:01.905Z,11.50
2023-03-16T09:32:28.761Z,11.50
2023-03-16T09:34:55.527Z,11.60
2023-03-16T09:37:22.680Z,11.70
2023-03-16T09:39:50.615Z,11.80
2023-03-16T09:42:41.094Z,11.90
2023-03-16T09:45:32.391Z,12.00
2023-03-16T09:48:01.202Z,12.00
2023-03-16T09:50:47.634Z,12.00
2023-03-16T09:53:30.857Z,12.00
2023-03-16T09:56:11.235Z,12.00
2023-03-16T09:58:38.594Z,12.00
2023-03-16T10:01:38.733Z,12.10
2023-03-16T10:04:29.528Z,12.10
2023-03-16T10:07:12.506Z,12.20
2023-03-16T10:09:49.673Z,12.20
2023-03-16T10:12:16.551Z,12.30
2023-03-16T10:15:06.351Z,12.40
2023-03-16T10:17:38.622Z,12.70
2023-03-16T10:20:10.149Z,13.00
2023-03-16T10:22:42.400Z,13.40
2023-03-16T10:25:13.009Z,13.50
2023-03-16T10:27:43.317Z,13.70
2023-03-16T10:30:19.952Z,13.80
2023-03-16T10:32:47.234Z,14.10
2023-03-16T10:35:36.293Z,14.20
2023-03-16T10:38:03.564Z,14.20
2023-03-16T10:40:38.764Z,14.30
2023-03-16T10:43:13.148Z,14.40
2023-03-16T10:45:42.677Z,14.30
2023-03-16T10:48:21.865Z,14.40
2023-03-16T10:50:54.028Z,14.30
2023-03-16T10:53:30.358Z,14.30
2023-03-16T10:56:05.295Z,14.20
2023-03-16T10:58:33.869Z,14.20
2023-03-16T11:01:01.645Z,14.10
2023-03-16T11:03:31.754Z,14.20
2023-03-16T11:06:03.458Z,14.30
2023-03-16T11:08:34.637Z,14.30
2023-03-16T11:11:08.496Z,14.20
2023-03-16T11:13:38.512Z,14.30
2023-03-16T11:16:24.101Z,14.50
2023-03-16T11:19:26.192Z,14.40
2023-03-16T11:22:01.468Z,14.40
2023-03-16T11:24:42.318Z,14.60
2023-03-16T11:27:24.905Z,14.80
2023-03-16T11:30:10.064Z,14.90
2023-03-16T11:32:38.188Z,14.90
2023-03-16T11:35:18.120Z,14.90
2023-03-16T11:37:44.975Z,14.80
2023-03-16T11:40:38.517Z,14.70
2023-03-16T11:43:05.299Z,14.60
2023-03-16T11:46:23.506Z,14.60
2023-03-16T11:49:26.563Z,14.70
2023-03-16T11:52:18.152Z,14.70
2023-03-16T11:55:07.540Z,14.80
2023-03-16T11:57:46.833Z,14.80
2023-03-16T12:00:32.559Z,14.80
2023-03-16T12:03:25.731Z,14.70
2023-03-16T12:06:05.716Z,14.60
2023-03-16T12:08:54.715Z,14.60
2023-03-16T12:11:33.892Z,14.60
2023-03-16T12:14:09.182Z,14.40
2023-03-16T12:17:04.262Z,14.40
2023-03-16T12:19:31.211Z,14.50
2023-03-16T12:22:16.848Z,14.40
2023-03-16T12:24:44.520Z,14.40
2023-03-16T12:27:24.852Z,14.40
2023-03-16T12:30:36.127Z,14.40
2023-03-16T12:33:50.735Z,14.30
2023-03-16T12:36:37.083Z,14.30
2023-03-16T12:39:09.448Z,14.40
2023-03-16T12:41:59.265Z,14.50
2023-03-16T12:44:47.021Z,14.60
2023-03-16T12:47:23.941Z,14.60
2023-03-16T12:49:52.049Z,14.60
2023-03-16T12:52:19.283Z,14.60
2023-03-16T12:55:15.330Z,14.70
2023-03-16T12:57:42.851Z,14.70
2023-03-16T13:00:11.153Z,14.80
2023-03-16T13:02:39.288Z,14.90
2023-03-16T13:05:28.586Z,15.00
2023-03-16T13:08:14.599Z,15.00
2023-03-16T13:10:41.592Z,15.00
2023-03-16T13:13:13.150Z,15.10
2023-03-16T13:15:40.042Z,15.00
2023-03-16T13:18:22.197Z,14.90
2023-03-16T13:20:55.718Z,14.90
2023-03-16T13:23:46.628Z,14.80
2023-03-16T13:26:18.816Z,15.00
2023-03-16T13:28:50.293Z,15.00
2023-03-16T13:31:37.360Z,15.10
2023-03-16T13:34:06.055Z,15.10
2023-03-16T13:36:34.003Z,14.90
2023-03-16T13:39:22.346Z,15.00
2023-03-16T13:41:57.344Z,15.00
2023-03-16T13:44:25.207Z,15.00
2023-03-16T13:46:52.034Z,14.90
2023-03-16T13:49:19.998Z,14.90
2023-03-16T13:51:47.255Z,14.90
2023-03-16T13:54:26.290Z,14.90
2023-03-16T13:56:53.390Z,14.90
2023-03-16T13:59:21.474Z,15.10
2023-03-16T14:01:49.237Z,15.00
2023-03-16T14:04:18.964Z,15.20
2023-03-16T14:06:55.072Z,15.10
2023-03-16T14:09:23.994Z,15.20
2023-03-16T14:11:51.361Z,15.20
2023-03-16T14:14:28.576Z,15.20
2023-03-16T14:17:02.637Z,15.20
2023-03-16T14:19:36.040Z,15.10
2023-03-16T14:22:06.675Z,15.00
2023-03-16T14:24:35.198Z,15.00
2023-03-16T14:27:18.661Z,14.90
2023-03-16T14:29:45.892Z,14.80
2023-03-16T14:32:30.760Z,14.70
2023-03-16T14:35:25.569Z,14.70
2023-03-16T14:37:55.273Z,14.70
2023-03-16T14:40:31.891Z,14.70
2023-03-16T14:43:04.005Z,14.60
2023-03-16T14:45:34.910Z,14.50
2023-03-16T14:48:06.970Z,14.40
2023-03-16T14:50:34.647Z,14.30
2023-03-16T14:53:01.849Z,14.30
2023-03-16T14:55:28.866Z,14.30
2023-03-16T14:57:56.227Z,14.30
2023-03-16T15:00:23.160Z,14.40
2023-03-16T15:03:11.745Z,14.50
2023-03-16T15:05:47.838Z,14.50
2023-03-16T15:08:26.631Z,14.60
2023-03-16T15:10:54.480Z,14.60
2023-03-16T15:13:34.954Z,14.60
2023-03-16T15:16:05.838Z,14.60
2023-03-16T15:18:33.621Z,14.60
2023-03-16T15:21:01.099Z,14.60
2023-03-16T15:23:28.055Z,14.60
2023-03-16T15:25:59.998Z,14.60
2023-03-16T15:28:27.569Z,14.60
2023-03-16T15:30:58.910Z,14.60
2023-03-16T15:33:25.965Z,14.70
2023-03-16T15:35:55.873Z,14.70
2023-03-16T15:38:31.395Z,14.70
2023-03-16T15:40:58.205Z,14.80
2023-03-16T15:43:27.240Z,14.80
2023-03-16T15:45:54.914Z,14.70
2023-03-16T15:48:24.467Z,14.70
2023-03-16T15:51:01.847Z,14.70
2023-03-16T15:53:34.677Z,14.70
2023-03-16T15:56:04.430Z,14.60
2023-03-16T15:58:32.568Z,14.60
2023-03-16T16:00:59.814Z,14.60
2023-03-16T16:03:27.321Z,14.60
2023-03-16T16:05:54.098Z,14.60
2023-03-16T16:08:20.874Z,14.50
2023-03-16T16:10:48.036Z,14.60
2023-03-16T16:13:19.994Z,14.50
2023-03-16T16:15:47.125Z,14.50
2023-03-16T16:18:36.643Z,14.50
2023-03-16T16:21:05.233Z,14.50
2023-03-16T16:23:33.003Z,14.60
2023-03-16T16:26:04.577Z,14.60
2023-03-16T16:28:32.832Z,14.70
2023-03-16T16:31:00.035Z,14.70
2023-03-16T16:33:31.260Z,14.60
2023-03-16T16:35:59.470Z,14.60
2023-03-16T16:38:26.347Z,14.60
2023-03-16T16:40:53.880Z,14.50
2023-03-16T16:43:38.845Z,14.50
2023-03-16T16:46:07.051Z,14.60
2023-03-16T16:48:38.423Z,14.50
2023-03-16T16:51:08.946Z,14.50
2023-03-16T16:53:35.956Z,14.50
2023-03-16T16:56:02.909Z,14.40
2023-03-16T16:58:29.984Z,14.40
2023-03-16T17:00:57.948Z,14.30
2023-03-16T17:03:27.560Z,14.30
2023-03-16T17:05:57.977Z,14.20
2023-03-16T17:08:25.645Z,14.20
2023-03-16T17:10:53.198Z,14.10
2023-03-16T17:13:39.100Z,14.00
2023-03-16T17:16:07.335Z,14.00
2023-03-16T17:18:34.125Z,13.90
2023-03-16T17:21:00.950Z,13.90
2023-03-16T17:23:33.214Z,13.80
2023-03-16T17:26:03.028Z,13.80
2023-03-16T17:28:31.471Z,13.80
2023-03-16T17:30:58.259Z,13.80
2023-03-16T17:33:26.101Z,13.80
2023-03-16T17:35:53.033Z,13.70
2023-03-16T17:38:22.004Z,13.70
2023-03-16T17:40:49.077Z,13.70
2023-03-16T17:43:20.502Z,13.70
2023-03-16T17:45:47.770Z,13.70
2023-03-16T17:48:16.921Z,13.60
2023-03-16T17:50:47.189Z,13.60
2023-03-16T17:53:16.779Z,13.60
2023-03-16T17:55:44.055Z,13.60
2023-03-16T17:58:30.274Z,13.50
2023-03-16T18:00:57.401Z,13.50
2023-03-16T18:03:25.156Z,13.40
2023-03-16T18:05:51.963Z,13.40
2023-03-16T18:08:26.564Z,13.40
2023-03-16T18:11:03.433Z,13.30
2023-03-16T18:13:35.195Z,13.30
2023-03-16T18:16:02.799Z,13.30
2023-03-16T18:18:31.607Z,13.30
2023-03-16T18:21:00.482Z,13.30
2023-03-16T18:23:33.591Z,13.20
2023-03-16T18:26:03.456Z,13.30
2023-03-16T18:28:31.058Z,13.30
2023-03-16T18:30:58.291Z,13.20
2023-03-16T18:33:32.642Z,13.20
2023-03-16T18:36:04.956Z,13.20
2023-03-16T18:38:32.590Z,13.30
2023-03-16T18:41:02.038Z,13.20
2023-03-16T18:43:28.980Z,13.20
2023-03-16T18:45:55.972Z,13.20
2023-03-16T18:48:29.302Z,13.20
2023-03-16T18:50:56.533Z,13.20
2023-03-16T18:53:23.898Z,13.20
2023-03-16T18:55:50.894Z,13.20
2023-03-16T18:58:20.635Z,13.10
2023-03-16T19:00:57.010Z,13.20
2023-03-16T19:03:31.790Z,13.20
2023-03-16T19:05:59.261Z,13.20
2023-03-16T19:08:27.023Z,13.10
2023-03-16T19:10:59.061Z,13.10
2023-03-16T19:13:26.336Z,13.10
2023-03-16T19:15:54.816Z,13.10
2023-03-16T19:18:22.903Z,13.00
2023-03-16T19:20:50.355Z,13.00
2023-03-16T19:23:23.544Z,13.00
2023-03-16T19:25:50.451Z,12.90
2023-03-16T19:28:34.334Z,12.90
2023-03-16T19:31:07.318Z,12.80
2023-03-16T19:33:34.458Z,12.80
2023-03-16T19:36:01.783Z,12.80
2023-03-16T19:38:28.618Z,12.70
2023-03-16T19:40:57.012Z,12.70
2023-03-16T19:43:23.963Z,12.70
2023-03-16T19:45:50.997Z,12.60
2023-03-16T19:48:27.869Z,12.60
2023-03-16T19:50:54.651Z,12.60
2023-03-16T19:53:22.511Z,12.50
2023-03-16T19:55:51.922Z,12.60
2023-03-16T19:58:38.655Z,12.60
2023-03-16T20:01:06.428Z,12.60
2023-03-16T20:03:34.847Z,12.60
2023-03-16T20:06:01.711Z,12.50
2023-03-16T20:08:29.025Z,12.60
2023-03-16T20:11:06.568Z,12.50
2023-03-16T20:13:34.259Z,12.60
2023-03-16T20:16:01.606Z,12.60
2023-03-16T20:18:29.361Z,12.60
2023-03-16T20:20:56.105Z,12.50
2023-03-16T20:23:26.874Z,12.50
2023-03-16T20:25:54.823Z,12.50
2023-03-16T20:28:23.566Z,12.50
2023-03-16T20:30:50.723Z,12.50
2023-03-16T20:33:18.671Z,12.60
2023-03-16T20:35:46.416Z,12.50
2023-03-16T20:38:13.543Z,12.50
2023-03-16T20:40:41.746Z,12.50
2023-03-16T20:43:15.654Z,12.50
2023-03-16T20:45:43.265Z,12.50
2023-03-16T20:48:14.328Z,12.60
2023-03-16T20:50:41.410Z,12.60
2023-03-16T20:53:08.691Z,12.60
2023-03-16T20:55:36.382Z,12.50
2023-03-16T20:58:03.233Z,12.50
2023-03-16T21:00:30.683Z,12.50
2023-03-16T21:02:57.593Z,12.50
2023-03-16T21:05:24.682Z,12.50
2023-03-16T21:07:53.163Z,12.50
2023-03-16T21:10:24.675Z,12.50
2023-03-16T21:12:53.449Z,12.50
2023-03-16T21:15:23.826Z,12.50
2023-03-16T21:18:04.190Z,12.50
2023-03-16T21:20:32.517Z,12.50
2023-03-16T21:22:59.838Z,12.50
2023-03-16T21:25:32.154Z,12.40
2023-03-16T21:28:00.827Z,12.50
2023-03-16T21:30:32.868Z,12.50
2023-03-16T21:33:01.814Z,12.50
2023-03-16T21:35:33.078Z,12.50
2023-03-16T21:38:01.303Z,12.50
2023-03-16T21:40:28.549Z,12.50
2023-03-16T21:42:55.482Z,12.50
2023-03-16T21:45:22.224Z,12.50
2023-03-16T21:47:49.008Z,12.50
2023-03-16T21:50:23.751Z,12.60
2023-03-16T21:52:51.108Z,12.60
2023-03-16T21:55:29.880Z,12.60
2023-03-16T21:57:57.201Z,12.60
2023-03-16T22:00:29.581Z,12.60
2023-03-16T22:02:57.868Z,12.60
2023-03-16T22:05:37.639Z,12.60
2023-03-16T22:08:14.771Z,12.60
2023-03-16T22:10:42.025Z,12.60
2023-03-16T22:13:09.442Z,12.60
2023-03-16T22:15:36.758Z,12.60
2023-03-16T22:18:06.893Z,12.60
2023-03-16T22:20:33.627Z,12.60
2023-03-16T22:23:01.633Z,12.60
2023-03-16T22:25:28.441Z,12.60
2023-03-16T22:27:55.309Z,12.60
2023-03-16T22:30:27.361Z,12.60
2023-03-16T22:32:59.166Z,12.60
2023-03-16T22:35:27.846Z,12.60
2023-03-16T22:37:55.540Z,12.60
2023-03-16T22:40:25.118Z,12.60
2023-03-16T22:42:51.788Z,12.60
2023-03-16T22:45:22.680Z,12.60
2023-03-16T22:47:49.558Z,12.60
2023-03-16T22:50:16.986Z,12.60
2023-03-16T22:52:44.256Z,12.60
2023-03-16T22:55:19.761Z,12.60
2023-03-16T22:57:46.734Z,12.60
2023-03-16T23:00:14.298Z,12.60
2023-03-16T23:02:41.081Z,12.60
2023-03-16T23:05:33.999Z,12.60
2023-03-16T23:08:01.382Z,12.60
2023-03-16T23:10:28.586Z,12.60
2023-03-16T23:12:55.561Z,12.60
2023-03-16T23:15:24.267Z,12.60
2023-03-16T23:17:51.310Z,12.60
2023-03-16T23:20:23.449Z,12.60
2023-03-16T23:22:51.127Z,12.60
2023-03-16T23:25:18.221Z,12.50
2023-03-16T23:27:44.998Z,12.50
2023-03-16T23:30:18.832Z,12.50
2023-03-16T23:32:45.701Z,12.50
2023-03-16T23:35:17.859Z,12.50
2023-03-16T23:37:44.878Z,12.40
2023-03-16T23:40:12.049Z,12.40
2023-03-16T23:42:39.210Z,12.40
2023-03-16T23:45:15.193Z,12.30
2023-03-16T23:47:42.072Z,12.30
2023-03-16T23:50:10.627Z,12.30
2023-03-16T23:52:37.374Z,12.20
2023-03-16T23:55:06.240Z,12.20
2023-03-16T23:57:32.929Z,12.20
2023-03-16T23:59:59.829Z,12.20
